createdAt,value
2024-04-30T00:02:09.488Z,101868.00
2024-04-30T00:04:36.479Z,101877.94
2024-04-30T00:07:03.508Z,101865.31
2024-04-30T00:09:30.302Z,101866.16
2024-04-30T00:11:57.095Z,101863.16
2024-04-30T00:14:23.842Z,101863.81
2024-04-30T00:16:50.633Z,101852.84
2024-04-30T00:19:17.435Z,101864.09
2024-04-30T00:21:44.250Z,101856.72
2024-04-30T00:24:12.701Z,101850.63
2024-04-30T00:26:39.663Z,101858.78
2024-04-30T00:29:06.590Z,101850.91
2024-04-30T00:31:33.700Z,101856.97
2024-04-30T00:34:00.627Z,101856.25
2024-04-30T00:36:27.496Z,101850.31
2024-04-30T00:38:54.975Z,101845.38
2024-04-30T00:41:21.980Z,101834.25
2024-04-30T00:43:48.757Z,101826.84
2024-04-30T00:46:15.778Z,101831.72
2024-04-30T00:48:44.526Z,101829.78
2024-04-30T00:51:13.603Z,101835.34
2024-04-30T00:53:43.364Z,101819.59
2024-04-30T00:56:10.337Z,101819.53
2024-04-30T00:58:37.875Z,101816.34
2024-04-30T01:01:05.069Z,101820.53
2024-04-30T01:03:32.040Z,101817.91
2024-04-30T01:05:59.090Z,101808.72
2024-04-30T01:08:25.838Z,101813.03
2024-04-30T01:10:52.613Z,101813.56
2024-04-30T01:13:19.423Z,101808.81
2024-04-30T01:15:48.209Z,101811.41
2024-04-30T01:18:15.625Z,101798.25
2024-04-30T01:20:42.466Z,101811.94
2024-04-30T01:23:09.224Z,101811.50
2024-04-30T01:25:36.162Z,101803.81
2024-04-30T01:28:03.223Z,101806.19
2024-04-30T01:30:30.163Z,101807.00
2024-04-30T01:32:57.184Z,101802.38
2024-04-30T01:35:23.992Z,101805.50
2024-04-30T01:37:50.744Z,101805.28
2024-04-30T01:40:18.422Z,101802.19
2024-04-30T01:42:45.278Z,101794.19
2024-04-30T01:45:12.080Z,101792.53
2024-04-30T01:47:38.890Z,101792.91
2024-04-30T01:50:07.226Z,101788.63
2024-04-30T01:52:34.294Z,101795.16
2024-04-30T01:55:01.340Z,101789.50
2024-04-30T01:57:28.261Z,101778.50
2024-04-30T01:59:55.016Z,101776.75
2024-04-30T02:02:21.914Z,101773.13
2024-04-30T02:04:53.191Z,101776.75
2024-04-30T02:07:20.974Z,101773.47
2024-04-30T02:09:47.883Z,101773.47
2024-04-30T02:12:14.678Z,101776.13
2024-04-30T02:14:42.050Z,101768.72
2024-04-30T02:17:08.908Z,101771.63
2024-04-30T02:19:35.729Z,101761.97
2024-04-30T02:22:02.648Z,101762.16
2024-04-30T02:24:29.519Z,101766.25
2024-04-30T02:26:56.324Z,101760.19
2024-04-30T02:29:23.142Z,101769.03
2024-04-30T02:32:08.299Z,101760.19
2024-04-30T02:34:35.214Z,101754.13
2024-04-30T02:37:02.160Z,101754.44
2024-04-30T02:39:29.016Z,101759.47
2024-04-30T02:41:55.861Z,101752.09
2024-04-30T02:44:22.647Z,101755.31
2024-04-30T02:46:49.634Z,101745.00
2024-04-30T02:49:16.453Z,101736.78
2024-04-30T02:51:43.283Z,101739.06
2024-04-30T02:54:10.059Z,101736.78
2024-04-30T02:56:36.838Z,101735.91
2024-04-30T02:59:04.586Z,101728.06
2024-04-30T03:01:31.407Z,101732.94
2024-04-30T03:03:58.313Z,101728.16
2024-04-30T03:06:25.198Z,101733.03
2024-04-30T03:08:51.966Z,101724.69
2024-04-30T03:11:18.852Z,101726.44
2024-04-30T03:13:46.111Z,101719.56
2024-04-30T03:16:12.970Z,101712.38
2024-04-30T03:18:41.734Z,101716.78
2024-04-30T03:21:09.551Z,101720.47
2024-04-30T03:23:36.495Z,101712.47
2024-04-30T03:26:03.427Z,101711.75
2024-04-30T03:28:30.347Z,101705.16
2024-04-30T03:30:58.970Z,101711.53
2024-04-30T03:33:26.120Z,101712.69
2024-04-30T03:35:52.977Z,101712.69
2024-04-30T03:38:19.725Z,101710.84
2024-04-30T03:40:46.606Z,101704.25
2024-04-30T03:43:13.391Z,101709.81
2024-04-30T03:45:40.371Z,101712.09
2024-04-30T03:48:07.514Z,101704.88
2024-04-30T03:50:34.297Z,101710.75
2024-04-30T03:53:01.523Z,101714.53
2024-04-30T03:55:28.301Z,101720.28
2024-04-30T03:57:55.052Z,101710.00
2024-04-30T04:00:21.874Z,101713.63
2024-04-30T04:02:48.714Z,101718.53
2024-04-30T04:05:15.523Z,101717.38
2024-04-30T04:07:42.355Z,101720.38
2024-04-30T04:10:09.189Z,101715.84
2024-04-30T04:12:54.658Z,101714.03
2024-04-30T04:15:21.399Z,101712.53
2024-04-30T04:17:48.674Z,101719.69
2024-04-30T04:20:15.498Z,101718.75
2024-04-30T04:22:42.374Z,101721.28
2024-04-30T04:25:09.227Z,101717.88
2024-04-30T04:27:36.071Z,101723.38
2024-04-30T04:30:02.933Z,101714.16
2024-04-30T04:32:29.780Z,101723.56
2024-04-30T04:34:56.597Z,101726.44
2024-04-30T04:37:26.671Z,101732.81
2024-04-30T04:39:54.258Z,101722.91
2024-04-30T04:42:21.077Z,101725.56
2024-04-30T04:44:47.865Z,101726.28
2024-04-30T04:47:14.646Z,101733.22
2024-04-30T04:49:41.430Z,101726.78
2024-04-30T04:52:08.349Z,101728.94
2024-04-30T04:54:35.187Z,101732.06
2024-04-30T04:57:01.981Z,101726.19
2024-04-30T04:59:28.760Z,101720.94
2024-04-30T05:01:55.687Z,101725.28
2024-04-30T05:04:22.800Z,101725.66
2024-04-30T05:06:51.499Z,101716.97
2024-04-30T05:09:19.067Z,101716.22
2024-04-30T05:11:47.044Z,101715.75
2024-04-30T05:14:13.883Z,101697.06
2024-04-30T05:16:41.038Z,101708.88
2024-04-30T05:19:07.930Z,101705.28
2024-04-30T05:21:34.690Z,101696.25
2024-04-30T05:24:01.527Z,101701.34
2024-04-30T05:26:28.297Z,101691.63
2024-04-30T05:28:55.034Z,101700.81
2024-04-30T05:31:21.849Z,101691.75
2024-04-30T05:33:48.737Z,101690.13
2024-04-30T05:36:15.547Z,101695.00
2024-04-30T05:38:42.312Z,101689.72
2024-04-30T05:41:09.112Z,101704.38
2024-04-30T05:43:35.978Z,101693.34
2024-04-30T05:46:02.952Z,101693.78
2024-04-30T05:48:29.738Z,101686.84
2024-04-30T05:50:56.549Z,101688.94
2024-04-30T05:53:23.378Z,101687.34
2024-04-30T05:55:50.263Z,101695.41
2024-04-30T05:58:17.053Z,101693.19
2024-04-30T06:00:43.893Z,101694.47
2024-04-30T06:03:10.974Z,101686.25
2024-04-30T06:05:37.955Z,101689.78
2024-04-30T06:08:05.309Z,101691.72
2024-04-30T06:10:32.147Z,101681.78
2024-04-30T06:12:58.917Z,101680.84
2024-04-30T06:15:25.704Z,101685.31
2024-04-30T06:17:52.566Z,101688.19
2024-04-30T06:20:19.505Z,101684.63
2024-04-30T06:22:46.460Z,101681.91
2024-04-30T06:25:13.334Z,101679.06
2024-04-30T06:27:40.136Z,101677.81
2024-04-30T06:30:07.694Z,101677.03
2024-04-30T06:32:34.594Z,101674.22
2024-04-30T06:35:01.586Z,101674.53
2024-04-30T06:37:28.496Z,101673.34
2024-04-30T06:39:55.334Z,101670.91
2024-04-30T06:42:22.099Z,101664.13
2024-04-30T06:44:48.959Z,101666.22
2024-04-30T06:47:15.768Z,101668.28
2024-04-30T06:49:42.595Z,101661.41
2024-04-30T06:52:09.443Z,101658.66
2024-04-30T06:54:36.603Z,101651.09
2024-04-30T06:57:03.443Z,101660.13
2024-04-30T06:59:30.263Z,101642.81
2024-04-30T07:01:57.071Z,101633.28
2024-04-30T07:04:23.923Z,101628.50
2024-04-30T07:06:50.743Z,101622.16
2024-04-30T07:09:17.520Z,101622.25
2024-04-30T07:11:44.405Z,101622.13
2024-04-30T07:14:11.335Z,101621.81
2024-04-30T07:16:48.353Z,101615.38
2024-04-30T07:19:19.692Z,101611.19
2024-04-30T07:21:46.529Z,101605.84
2024-04-30T07:24:13.362Z,101615.25
2024-04-30T07:26:40.160Z,101610.91
2024-04-30T07:29:06.954Z,101609.66
2024-04-30T07:31:33.836Z,101608.47
2024-04-30T07:34:03.452Z,101600.31
2024-04-30T07:36:30.725Z,101614.16
2024-04-30T07:38:57.536Z,101607.69
2024-04-30T07:41:24.277Z,101609.72
2024-04-30T07:43:51.050Z,101602.00
2024-04-30T07:46:20.141Z,101609.28
2024-04-30T07:48:47.201Z,101608.81
2024-04-30T07:51:13.981Z,101608.69
2024-04-30T07:53:40.803Z,101600.22
2024-04-30T07:56:07.691Z,101589.81
2024-04-30T07:58:34.551Z,101600.28
2024-04-30T08:01:03.506Z,101597.94
2024-04-30T08:03:30.483Z,101600.31
2024-04-30T08:06:01.291Z,101592.75
2024-04-30T08:08:33.935Z,101590.53
2024-04-30T08:11:00.700Z,101587.91
2024-04-30T08:13:27.584Z,101590.28
2024-04-30T08:15:54.477Z,101592.13
2024-04-30T08:18:21.368Z,101587.88
2024-04-30T08:20:48.228Z,101582.97
2024-04-30T08:23:14.989Z,101577.53
2024-04-30T08:25:41.845Z,101566.03
2024-04-30T08:28:10.028Z,101576.16
2024-04-30T08:30:37.186Z,101573.91
2024-04-30T08:33:04.848Z,101570.75
2024-04-30T08:35:31.630Z,101566.72
2024-04-30T08:38:01.248Z,101568.13
2024-04-30T08:40:29.179Z,101560.03
2024-04-30T08:42:59.027Z,101558.94
2024-04-30T08:45:27.737Z,101559.09
2024-04-30T08:47:56.753Z,101545.31
2024-04-30T08:50:26.974Z,101538.91
2024-04-30T08:52:55.867Z,101547.91
2024-04-30T08:55:23.815Z,101543.09
2024-04-30T08:57:50.896Z,101545.13
2024-04-30T09:00:17.794Z,101538.28
2024-04-30T09:02:53.401Z,101537.00
2024-04-30T09:05:21.629Z,101527.78
2024-04-30T09:07:48.584Z,101526.19
2024-04-30T09:10:15.423Z,101534.28
2024-04-30T09:12:42.206Z,101522.53
2024-04-30T09:15:19.687Z,101522.53
2024-04-30T09:17:46.762Z,101518.09
2024-04-30T09:20:13.634Z,101516.06
2024-04-30T09:22:54.456Z,101515.66
2024-04-30T09:25:41.747Z,101514.38
2024-04-30T09:28:17.874Z,101506.72
2024-04-30T09:30:55.693Z,101501.41
2024-04-30T09:33:23.604Z,101497.00
2024-04-30T09:36:19.835Z,101501.75
2024-04-30T09:38:47.899Z,101502.56
2024-04-30T09:41:14.737Z,101491.66
2024-04-30T09:43:42.305Z,101492.91
2024-04-30T09:46:09.434Z,101485.41
2024-04-30T09:48:36.505Z,101480.88
2024-04-30T09:51:08.297Z,101482.19
2024-04-30T09:53:37.495Z,101475.22
2024-04-30T09:56:09.598Z,101472.38
2024-04-30T09:58:38.077Z,101475.66
2024-04-30T10:01:07.135Z,101461.00
2024-04-30T10:03:38.857Z,101469.06
2024-04-30T10:06:08.054Z,101465.75
2024-04-30T10:08:36.498Z,101458.34
2024-04-30T10:11:07.803Z,101464.00
2024-04-30T10:13:34.740Z,101457.72
2024-04-30T10:16:12.361Z,101455.66
2024-04-30T10:18:39.224Z,101461.50
2024-04-30T10:21:12.971Z,101453.84
2024-04-30T10:23:47.070Z,101437.84
2024-04-30T10:26:15.656Z,101436.38
2024-04-30T10:28:42.851Z,101438.47
2024-04-30T10:31:11.816Z,101433.13
2024-04-30T10:33:39.703Z,101423.91
2024-04-30T10:36:09.557Z,101416.78
2024-04-30T10:38:36.558Z,101422.22
2024-04-30T10:41:04.843Z,101414.75
2024-04-30T10:43:31.645Z,101420.63
2024-04-30T10:46:18.815Z,101418.06
2024-04-30T10:48:53.186Z,101414.22
2024-04-30T10:51:21.514Z,101414.34
2024-04-30T10:53:49.573Z,101410.19
2024-04-30T10:56:17.024Z,101399.81
2024-04-30T10:58:57.607Z,101411.31
2024-04-30T11:01:26.248Z,101401.50
2024-04-30T11:04:04.904Z,101396.59
2024-04-30T11:06:43.047Z,101393.44
2024-04-30T11:09:12.496Z,101397.66
2024-04-30T11:11:48.898Z,101395.31
2024-04-30T11:14:17.221Z,101390.59
2024-04-30T11:16:45.389Z,101386.03
2024-04-30T11:19:13.237Z,101384.63
2024-04-30T11:21:40.368Z,101375.88
2024-04-30T11:24:08.297Z,101374.66
2024-04-30T11:26:35.148Z,101377.44
2024-04-30T11:29:15.922Z,101368.44
2024-04-30T11:31:48.994Z,101364.47
2024-04-30T11:34:15.873Z,101375.22
2024-04-30T11:36:42.924Z,101368.03
2024-04-30T11:39:13.123Z,101375.47
2024-04-30T11:41:43.564Z,101374.78
2024-04-30T11:44:15.302Z,101366.88
2024-04-30T11:46:42.242Z,101366.47
2024-04-30T11:49:09.260Z,101362.75
2024-04-30T11:51:36.153Z,101362.19
2024-04-30T11:54:02.951Z,101365.41
2024-04-30T11:56:31.955Z,101353.44
2024-04-30T11:58:58.838Z,101347.09
2024-04-30T12:01:25.820Z,101342.97
2024-04-30T12:03:52.747Z,101341.22
2024-04-30T12:06:19.843Z,101341.44
2024-04-30T12:08:46.671Z,101334.13
2024-04-30T12:11:13.787Z,101330.63
2024-04-30T12:13:40.904Z,101320.59
2024-04-30T12:16:08.201Z,101317.72
2024-04-30T12:18:35.110Z,101304.53
2024-04-30T12:21:02.019Z,101319.28
2024-04-30T12:23:29.010Z,101310.94
2024-04-30T12:25:55.935Z,101310.22
2024-04-30T12:28:22.851Z,101300.91
2024-04-30T12:30:49.634Z,101300.00
2024-04-30T12:33:18.528Z,101299.56
2024-04-30T12:35:46.703Z,101298.25
2024-04-30T12:38:14.673Z,101286.28
2024-04-30T12:40:42.499Z,101294.22
2024-04-30T12:43:09.573Z,101284.13
2024-04-30T12:45:36.406Z,101288.09
2024-04-30T12:48:04.265Z,101287.03
2024-04-30T12:50:31.264Z,101281.38
2024-04-30T12:52:58.186Z,101290.47
2024-04-30T12:55:25.211Z,101283.53
2024-04-30T12:57:52.082Z,101286.81
2024-04-30T13:00:19.067Z,101275.66
2024-04-30T13:02:46.341Z,101268.88
2024-04-30T13:05:13.409Z,101281.63
2024-04-30T13:07:40.523Z,101276.16
2024-04-30T13:10:07.678Z,101276.41
2024-04-30T13:12:36.064Z,101277.03
2024-04-30T13:15:03.473Z,101266.41
2024-04-30T13:17:31.492Z,101264.50
2024-04-30T13:19:58.364Z,101258.16
2024-04-30T13:22:25.472Z,101261.00
2024-04-30T13:24:52.297Z,101260.34
2024-04-30T13:27:19.062Z,101260.03
2024-04-30T13:29:45.844Z,101256.81
2024-04-30T13:32:12.700Z,101258.00
2024-04-30T13:34:39.610Z,101261.72
2024-04-30T13:37:06.676Z,101247.31
2024-04-30T13:39:33.860Z,101249.25
2024-04-30T13:42:00.684Z,101245.53
2024-04-30T13:44:27.544Z,101241.59
2024-04-30T13:46:54.357Z,101241.88
2024-04-30T13:49:21.339Z,101242.31
2024-04-30T13:51:48.125Z,101236.94
2024-04-30T13:54:15.008Z,101238.75
2024-04-30T13:56:41.910Z,101239.09
2024-04-30T13:59:16.754Z,101228.72
2024-04-30T14:01:45.629Z,101229.78
2024-04-30T14:04:12.597Z,101221.66
2024-04-30T14:06:42.327Z,101216.00
2024-04-30T14:09:10.590Z,101208.31
2024-04-30T14:11:38.024Z,101204.94
2024-04-30T14:14:06.572Z,101204.31
2024-04-30T14:16:34.045Z,101205.69
2024-04-30T14:19:01.059Z,101193.63
2024-04-30T14:21:28.107Z,101189.88
2024-04-30T14:23:56.545Z,101187.75
2024-04-30T14:26:23.322Z,101183.91
2024-04-30T14:28:50.145Z,101188.03
2024-04-30T14:31:19.136Z,101192.28
2024-04-30T14:33:47.753Z,101187.56
2024-04-30T14:36:37.374Z,101184.91
2024-04-30T14:39:07.354Z,101179.44
2024-04-30T14:41:45.115Z,101177.59
2024-04-30T14:44:12.647Z,101176.13
2024-04-30T14:46:40.992Z,101182.75
2024-04-30T14:49:07.971Z,101177.03
2024-04-30T14:51:35.354Z,101176.66
2024-04-30T14:54:02.757Z,101176.06
2024-04-30T14:56:29.627Z,101176.28
2024-04-30T14:58:56.464Z,101171.00
2024-04-30T15:01:23.345Z,101165.97
2024-04-30T15:03:50.269Z,101162.91
2024-04-30T15:06:21.703Z,101160.44
2024-04-30T15:08:49.555Z,101164.00
2024-04-30T15:11:26.209Z,101162.63
2024-04-30T15:13:53.893Z,101160.22
2024-04-30T15:16:21.925Z,101153.22
2024-04-30T15:18:49.036Z,101158.78
2024-04-30T15:21:16.391Z,101153.91
2024-04-30T15:23:44.853Z,101166.06
2024-04-30T15:26:12.916Z,101161.88
2024-04-30T15:28:39.955Z,101151.16
2024-04-30T15:31:07.215Z,101152.25
2024-04-30T15:33:36.695Z,101156.72
2024-04-30T15:36:05.901Z,101149.38
2024-04-30T15:38:32.844Z,101146.69
2024-04-30T15:41:00.485Z,101140.06
2024-04-30T15:43:29.985Z,101141.81
2024-04-30T15:45:57.541Z,101144.88
2024-04-30T15:48:24.712Z,101127.66
2024-04-30T15:50:51.907Z,101128.19
2024-04-30T15:53:22.367Z,101133.41
2024-04-30T15:56:04.936Z,101122.50
2024-04-30T15:58:36.628Z,101130.59
2024-04-30T16:01:03.998Z,101119.63
2024-04-30T16:03:30.999Z,101116.41
2024-04-30T16:05:57.835Z,101120.16
2024-04-30T16:08:24.653Z,101113.72
2024-04-30T16:10:51.494Z,101113.16
2024-04-30T16:13:21.571Z,101116.72
2024-04-30T16:15:50.468Z,101109.47
2024-04-30T16:18:19.732Z,101113.75
2024-04-30T16:20:46.914Z,101099.06
2024-04-30T16:23:13.675Z,101098.41
2024-04-30T16:25:42.189Z,101100.22
2024-04-30T16:28:10.897Z,101100.28
2024-04-30T16:30:37.669Z,101101.28
2024-04-30T16:33:04.783Z,101097.97
2024-04-30T16:35:31.597Z,101093.09
2024-04-30T16:37:58.422Z,101096.91
2024-04-30T16:40:25.156Z,101100.03
2024-04-30T16:42:51.954Z,101093.91
2024-04-30T16:45:18.831Z,101099.31
2024-04-30T16:47:45.916Z,101096.00
2024-04-30T16:50:12.806Z,101096.22
2024-04-30T16:52:39.570Z,101095.31
2024-04-30T16:55:06.713Z,101088.72
2024-04-30T16:57:34.535Z,101089.94
2024-04-30T17:00:01.384Z,101088.78
2024-04-30T17:02:28.188Z,101090.16
2024-04-30T17:04:55.620Z,101087.44
2024-04-30T17:07:22.419Z,101093.25
2024-04-30T17:09:49.406Z,101094.47
2024-04-30T17:12:16.199Z,101088.06
2024-04-30T17:14:42.992Z,101088.97
2024-04-30T17:17:10.525Z,101083.06
2024-04-30T17:19:37.363Z,101084.28
2024-04-30T17:22:04.395Z,101091.94
2024-04-30T17:24:31.249Z,101089.63
2024-04-30T17:26:58.915Z,101088.44
2024-04-30T17:29:26.066Z,101087.28
2024-04-30T17:31:53.052Z,101083.69
2024-04-30T17:34:20.028Z,101084.28
2024-04-30T17:36:50.024Z,101086.50
2024-04-30T17:39:17.625Z,101080.41
2024-04-30T17:41:45.659Z,101084.03
2024-04-30T17:44:12.584Z,101090.81
2024-04-30T17:46:43.550Z,101085.47
2024-04-30T17:49:14.034Z,101087.84
2024-04-30T17:51:42.114Z,101087.63
2024-04-30T17:54:09.242Z,101084.94
2024-04-30T17:56:39.748Z,101092.00
2024-04-30T17:59:07.473Z,101093.22
2024-04-30T18:01:34.393Z,101096.53
2024-04-30T18:04:01.344Z,101088.09
2024-04-30T18:06:28.640Z,101094.19
2024-04-30T18:08:59.020Z,101095.81
2024-04-30T18:11:29.153Z,101099.47
2024-04-30T18:13:56.782Z,101093.44
2024-04-30T18:16:23.796Z,101099.50
2024-04-30T18:18:51.796Z,101111.19
2024-04-30T18:21:20.236Z,101100.66
2024-04-30T18:23:47.355Z,101102.25
2024-04-30T18:26:14.543Z,101096.56
2024-04-30T18:28:44.553Z,101109.00
2024-04-30T18:31:11.320Z,101099.25
2024-04-30T18:33:38.198Z,101112.06
2024-04-30T18:36:05.259Z,101110.00
2024-04-30T18:38:35.600Z,101099.41
2024-04-30T18:41:13.399Z,101103.38
2024-04-30T18:43:47.549Z,101099.25
2024-04-30T18:46:15.486Z,101099.13
2024-04-30T18:48:44.268Z,101104.72
2024-04-30T18:51:12.093Z,101107.88
2024-04-30T18:53:41.531Z,101110.63
2024-04-30T18:56:09.659Z,101115.75
2024-04-30T18:58:36.812Z,101118.50
2024-04-30T19:01:03.908Z,101124.78
2024-04-30T19:03:30.856Z,101117.38
2024-04-30T19:05:57.613Z,101113.69
2024-04-30T19:08:24.399Z,101119.19
2024-04-30T19:10:51.275Z,101121.13
2024-04-30T19:13:18.251Z,101128.66
2024-04-30T19:15:46.505Z,101122.56
2024-04-30T19:18:13.461Z,101117.34
2024-04-30T19:20:40.366Z,101115.41
2024-04-30T19:23:07.146Z,101117.75
2024-04-30T19:25:33.955Z,101118.56
2024-04-30T19:28:01.206Z,101117.16
2024-04-30T19:30:28.052Z,101113.63
2024-04-30T19:32:54.967Z,101120.47
2024-04-30T19:35:21.832Z,101121.34
2024-04-30T19:37:48.584Z,101120.41
2024-04-30T19:40:15.424Z,101125.16
2024-04-30T19:42:42.267Z,101117.03
2024-04-30T19:45:09.236Z,101123.09
2024-04-30T19:47:36.072Z,101117.69
2024-04-30T19:50:02.953Z,101124.91
2024-04-30T19:52:29.783Z,101122.09
2024-04-30T19:54:56.669Z,101122.91
2024-04-30T19:57:23.530Z,101125.59
2024-04-30T19:59:50.353Z,101131.09
2024-04-30T20:02:17.293Z,101133.38
2024-04-30T20:04:45.182Z,101124.94
2024-04-30T20:07:12.703Z,101130.16
2024-04-30T20:09:39.585Z,101131.72
2024-04-30T20:12:06.589Z,101121.28
2024-04-30T20:14:33.331Z,101126.38
2024-04-30T20:17:00.141Z,101129.56
2024-04-30T20:19:26.950Z,101125.53
2024-04-30T20:21:53.834Z,101123.91
2024-04-30T20:24:23.063Z,101121.78
2024-04-30T20:26:50.236Z,101125.31
2024-04-30T20:29:17.218Z,101126.75
2024-04-30T20:31:44.603Z,101128.59
2024-04-30T20:34:11.483Z,101127.22
2024-04-30T20:36:38.304Z,101139.63
2024-04-30T20:39:06.068Z,101127.63
2024-04-30T20:41:32.845Z,101123.59
2024-04-30T20:43:59.676Z,101126.84
2024-04-30T20:46:26.477Z,101132.16
2024-04-30T20:48:53.374Z,101134.69
2024-04-30T20:51:20.494Z,101129.56
2024-04-30T20:53:47.429Z,101132.38
2024-04-30T20:56:14.175Z,101133.84
2024-04-30T20:58:41.008Z,101140.16
2024-04-30T21:01:07.909Z,101147.00
2024-04-30T21:03:34.791Z,101145.13
2024-04-30T21:06:01.619Z,101138.09
2024-04-30T21:08:28.368Z,101151.94
2024-04-30T21:10:55.254Z,101156.56
2024-04-30T21:13:22.067Z,101155.97
2024-04-30T21:15:48.930Z,101155.28
2024-04-30T21:18:15.960Z,101154.22
2024-04-30T21:20:42.735Z,101158.28
2024-04-30T21:23:09.795Z,101169.97
2024-04-30T21:25:36.942Z,101158.88
2024-04-30T21:28:03.901Z,101158.31
2024-04-30T21:30:30.770Z,101158.84
2024-04-30T21:32:57.615Z,101157.03
2024-04-30T21:35:24.799Z,101148.88
2024-04-30T21:37:51.550Z,101151.81
2024-04-30T21:40:18.288Z,101151.66
2024-04-30T21:42:45.144Z,101153.88
2024-04-30T21:45:11.923Z,101155.97
2024-04-30T21:47:38.858Z,101157.00
2024-04-30T21:50:05.983Z,101142.72
2024-04-30T21:52:32.763Z,101157.72
2024-04-30T21:54:59.575Z,101151.13
2024-04-30T21:57:26.398Z,101154.22
2024-04-30T21:59:53.250Z,101154.88
2024-04-30T22:02:20.865Z,101157.41
2024-04-30T22:04:47.688Z,101148.69
2024-04-30T22:07:16.874Z,101140.44
2024-04-30T22:09:44.477Z,101139.00
2024-04-30T22:12:11.348Z,101127.19
2024-04-30T22:14:38.100Z,101135.00
2024-04-30T22:17:05.123Z,101133.91
2024-04-30T22:19:32.080Z,101136.03
2024-04-30T22:21:58.864Z,101136.56
2024-04-30T22:24:25.747Z,101137.06
2024-04-30T22:26:52.491Z,101143.28
2024-04-30T22:29:22.427Z,101147.03
2024-04-30T22:31:49.801Z,101148.81
2024-04-30T22:34:16.681Z,101158.56
2024-04-30T22:36:43.620Z,101154.75
2024-04-30T22:39:11.183Z,101151.50
2024-04-30T22:41:37.985Z,101159.06
2024-04-30T22:44:04.827Z,101151.50
2024-04-30T22:46:31.625Z,101155.44
2024-04-30T22:48:58.428Z,101151.03
2024-04-30T22:51:31.092Z,101150.22
2024-04-30T22:53:58.359Z,101144.41
2024-04-30T22:56:25.220Z,101148.97
2024-04-30T22:58:51.979Z,101144.78
2024-04-30T23:01:18.940Z,101148.63
2024-04-30T23:03:45.839Z,101151.31
2024-04-30T23:06:12.601Z,101137.34
2024-04-30T23:08:40.011Z,101142.81
2024-04-30T23:11:06.843Z,101138.31
2024-04-30T23:13:33.635Z,101139.47
2024-04-30T23:16:02.064Z,101136.66
2024-04-30T23:18:29.065Z,101137.13
2024-04-30T23:20:56.150Z,101138.03
2024-04-30T23:23:22.921Z,101132.13
2024-04-30T23:25:49.678Z,101125.69
2024-04-30T23:28:16.483Z,101135.22
2024-04-30T23:30:43.262Z,101123.97
2024-04-30T23:33:10.084Z,101116.94
2024-04-30T23:35:36.826Z,101119.75
2024-04-30T23:38:03.841Z,101121.47
2024-04-30T23:40:30.602Z,101115.53
2024-04-30T23:42:57.771Z,101104.88
2024-04-30T23:45:24.614Z,101108.50
2024-04-30T23:47:52.011Z,101103.19
2024-04-30T23:50:18.811Z,101102.69
2024-04-30T23:52:45.628Z,101102.50
2024-04-30T23:55:12.386Z,101097.19
2024-04-30T23:57:39.188Z,101095.34
